createdAt,value
2019-05-18T00:00:54.019Z,153.65
2019-05-18T00:03:21.134Z,154.57
2019-05-18T00:05:48.314Z,155.27
2019-05-18T00:08:15.390Z,153.07
2019-05-18T00:10:42.488Z,153.53
2019-05-18T00:13:09.631Z,154.07
2019-05-18T00:15:36.855Z,153.57
2019-05-18T00:18:04.417Z,153.87
2019-05-18T00:20:31.480Z,154.50
2019-05-18T00:22:58.682Z,154.65
2019-05-18T00:25:25.919Z,153.65
2019-05-18T00:27:55.321Z,154.18
2019-05-18T00:30:22.416Z,155.78
2019-05-18T00:32:50.677Z,154.87
2019-05-18T00:35:18.120Z,154.57
2019-05-18T00:37:45.289Z,154.47
2019-05-18T00:40:12.351Z,155.35
2019-05-18T00:42:39.535Z,157.37
2019-05-18T00:45:06.988Z,156.30
2019-05-18T00:47:41.588Z,157.00
2019-05-18T00:50:06.690Z,155.37
2019-05-18T00:52:35.642Z,155.35
2019-05-18T00:55:03.147Z,156.10
2019-05-18T00:57:30.338Z,155.65
2019-05-18T00:59:59.202Z,153.40
2019-05-18T01:02:26.248Z,154.70
2019-05-18T01:04:53.395Z,153.90
2019-05-18T01:07:21.593Z,154.25
2019-05-18T01:09:48.721Z,153.95
2019-05-18T01:12:18.199Z,154.32
2019-05-18T01:14:45.231Z,153.47
2019-05-18T01:17:12.375Z,153.62
2019-05-18T01:19:39.539Z,155.60
2019-05-18T01:22:08.063Z,156.18
2019-05-18T01:24:38.642Z,153.78
2019-05-18T01:27:05.726Z,153.20
2019-05-18T01:29:32.781Z,153.72
2019-05-18T01:31:59.835Z,153.02
2019-05-18T01:34:26.959Z,156.72
2019-05-18T01:36:54.084Z,155.35
2019-05-18T01:39:21.148Z,157.25
2019-05-18T01:41:48.242Z,155.15
2019-05-18T01:44:15.325Z,154.47
2019-05-18T01:46:42.371Z,155.18
2019-05-18T01:49:09.559Z,155.35
2019-05-18T01:51:36.713Z,154.38
2019-05-18T01:54:04.912Z,154.42
2019-05-18T01:56:31.993Z,153.60
2019-05-18T01:58:59.058Z,155.50
2019-05-18T02:01:28.226Z,152.93
2019-05-18T02:03:55.503Z,152.65
2019-05-18T02:06:24.382Z,154.57
2019-05-18T02:08:51.422Z,155.05
2019-05-18T02:11:19.165Z,153.68
2019-05-18T02:13:46.224Z,153.95
2019-05-18T02:16:14.560Z,154.75
2019-05-18T02:18:41.647Z,154.05
2019-05-18T02:21:08.875Z,153.35
2019-05-18T02:23:35.920Z,153.57
2019-05-18T02:26:04.066Z,153.25
2019-05-18T02:28:31.102Z,153.85
2019-05-18T02:30:58.582Z,153.07
2019-05-18T02:33:25.656Z,152.65
2019-05-18T02:35:52.702Z,153.75
2019-05-18T02:38:19.724Z,155.43
2019-05-18T02:40:47.247Z,153.72
2019-05-18T02:43:15.316Z,155.25
2019-05-18T02:45:42.486Z,154.32
2019-05-18T02:48:09.660Z,153.95
2019-05-18T02:50:37.908Z,153.42
2019-05-18T02:53:05.082Z,152.50
2019-05-18T02:55:32.133Z,153.20
2019-05-18T02:57:59.408Z,153.10
2019-05-18T03:00:26.859Z,153.12
2019-05-18T03:02:53.985Z,154.53
2019-05-18T03:05:21.057Z,152.55
2019-05-18T03:07:49.879Z,153.32
2019-05-18T03:10:17.098Z,156.12
2019-05-18T03:12:44.154Z,161.32
2019-05-18T03:15:11.640Z,164.62
2019-05-18T03:17:38.722Z,159.97
2019-05-18T03:20:07.775Z,157.35
2019-05-18T03:22:34.837Z,155.85
2019-05-18T03:25:01.895Z,154.47
2019-05-18T03:27:28.940Z,152.95
2019-05-18T03:29:55.999Z,154.63
2019-05-18T03:32:23.360Z,153.45
2019-05-18T03:34:51.854Z,152.32
2019-05-18T03:37:18.913Z,153.20
2019-05-18T03:39:45.962Z,154.87
2019-05-18T03:42:14.101Z,152.87
2019-05-18T03:44:42.338Z,153.55
2019-05-18T03:47:09.419Z,154.60
2019-05-18T03:49:38.240Z,155.05
2019-05-18T03:52:05.310Z,153.78
2019-05-18T03:54:32.579Z,154.42
2019-05-18T03:56:59.620Z,153.57
2019-05-18T03:59:26.635Z,154.47
2019-05-18T04:01:53.854Z,153.15
2019-05-18T04:04:20.894Z,154.12
2019-05-18T04:06:49.785Z,153.57
2019-05-18T04:09:18.120Z,154.00
2019-05-18T04:11:45.138Z,155.63
2019-05-18T04:14:12.369Z,156.25
2019-05-18T04:16:39.958Z,154.07
2019-05-18T04:19:07.088Z,155.63
2019-05-18T04:21:39.772Z,157.75
2019-05-18T04:24:06.993Z,157.72
2019-05-18T04:26:34.633Z,157.82
2019-05-18T04:29:01.683Z,156.57
2019-05-18T04:31:32.081Z,156.90
2019-05-18T04:33:57.694Z,155.80
2019-05-18T04:36:25.978Z,156.55
2019-05-18T04:38:54.785Z,156.15
2019-05-18T04:41:25.295Z,155.82
2019-05-18T04:43:56.089Z,154.35
2019-05-18T04:46:23.141Z,156.10
2019-05-18T04:48:50.533Z,156.43
2019-05-18T04:51:19.776Z,155.18
2019-05-18T04:53:47.047Z,153.50
2019-05-18T04:56:17.685Z,158.35
2019-05-18T04:58:50.232Z,157.15
2019-05-18T05:01:19.159Z,155.97
2019-05-18T05:03:47.325Z,155.40
2019-05-18T05:06:14.416Z,156.37
2019-05-18T05:08:44.701Z,155.20
2019-05-18T05:11:11.906Z,156.87
2019-05-18T05:13:40.331Z,154.10
2019-05-18T05:16:07.353Z,155.27
2019-05-18T05:18:34.578Z,156.07
2019-05-18T05:21:02.085Z,157.30
2019-05-18T05:23:29.161Z,158.03
2019-05-18T05:25:56.280Z,157.32
2019-05-18T05:28:23.380Z,155.37
2019-05-18T05:30:50.442Z,158.82
2019-05-18T05:33:24.353Z,157.10
2019-05-18T05:35:52.553Z,157.10
2019-05-18T05:38:19.629Z,156.30
2019-05-18T05:40:48.515Z,156.05
2019-05-18T05:43:15.673Z,156.55
2019-05-18T05:45:42.757Z,155.95
2019-05-18T05:48:10.029Z,157.75
2019-05-18T05:50:37.207Z,158.95
2019-05-18T05:53:04.779Z,157.72
2019-05-18T05:55:32.031Z,159.70
2019-05-18T05:58:00.896Z,158.70
2019-05-18T06:00:29.194Z,158.22
2019-05-18T06:02:56.923Z,161.55
2019-05-18T06:05:25.203Z,159.63
2019-05-18T06:07:54.120Z,157.62
2019-05-18T06:10:21.244Z,159.52
2019-05-18T06:12:48.274Z,157.78
2019-05-18T06:15:15.671Z,158.35
2019-05-18T06:17:42.731Z,159.65
2019-05-18T06:20:09.889Z,159.60
2019-05-18T06:22:40.992Z,158.63
2019-05-18T06:25:14.897Z,162.18
2019-05-18T06:27:43.105Z,160.82
2019-05-18T06:30:12.243Z,160.40
2019-05-18T06:32:39.395Z,162.00
2019-05-18T06:35:07.881Z,162.03
2019-05-18T06:37:37.494Z,162.90
2019-05-18T06:40:04.992Z,162.03
2019-05-18T06:42:33.155Z,164.00
2019-05-18T06:45:00.169Z,163.43
2019-05-18T06:47:28.451Z,161.97
2019-05-18T06:49:55.979Z,166.85
2019-05-18T06:52:37.945Z,167.07
2019-05-18T06:55:06.505Z,165.32
2019-05-18T06:57:38.066Z,166.60
2019-05-18T07:00:11.026Z,167.87
2019-05-18T07:02:39.358Z,169.07
2019-05-18T07:05:06.487Z,169.13
2019-05-18T07:07:35.020Z,171.95
2019-05-18T07:10:03.211Z,173.13
2019-05-18T07:12:30.760Z,175.72
2019-05-18T07:15:00.357Z,172.72
2019-05-18T07:17:26.916Z,174.90
2019-05-18T07:19:53.976Z,175.53
2019-05-18T07:22:21.079Z,176.40
2019-05-18T07:24:48.101Z,175.68
2019-05-18T07:27:15.156Z,178.50
2019-05-18T07:29:42.256Z,180.52
2019-05-18T07:32:09.312Z,175.38
2019-05-18T07:34:36.693Z,182.05
2019-05-18T07:37:04.066Z,179.45
2019-05-18T07:39:36.060Z,179.53
2019-05-18T07:42:02.988Z,180.45
2019-05-18T07:45:00.383Z,180.87
2019-05-18T07:47:30.547Z,178.72
2019-05-18T07:50:02.055Z,178.65
2019-05-18T07:52:29.333Z,177.22
2019-05-18T07:55:01.794Z,179.80
2019-05-18T07:57:39.020Z,176.37
2019-05-18T08:00:19.084Z,178.62
2019-05-18T08:03:08.299Z,174.95
2019-05-18T08:05:51.546Z,177.07
2019-05-18T08:08:23.013Z,175.53
2019-05-18T08:11:12.323Z,179.20
2019-05-18T08:13:43.511Z,179.57
2019-05-18T08:16:21.583Z,178.32
2019-05-18T08:18:58.174Z,180.05
2019-05-18T08:21:32.550Z,175.42
2019-05-18T08:24:06.559Z,175.60
2019-05-18T08:26:42.040Z,178.42
2019-05-18T08:29:24.376Z,176.50
2019-05-18T08:31:52.310Z,180.85
2019-05-18T08:34:30.509Z,180.10
2019-05-18T08:37:13.008Z,184.97
2019-05-18T08:39:39.996Z,176.55
2019-05-18T08:42:07.018Z,178.20
2019-05-18T08:44:34.157Z,181.30
2019-05-18T08:47:01.659Z,175.75
2019-05-18T08:49:28.644Z,172.55
2019-05-18T08:52:07.943Z,175.40
2019-05-18T08:54:29.567Z,174.47
2019-05-18T08:56:57.272Z,171.45
2019-05-18T08:59:33.537Z,171.40
2019-05-18T09:02:00.676Z,175.27
2019-05-18T09:04:28.127Z,171.95
2019-05-18T09:07:12.396Z,172.70
2019-05-18T09:09:42.725Z,170.75
2019-05-18T09:12:09.970Z,170.95
2019-05-18T09:14:37.608Z,168.70
2019-05-18T09:17:06.524Z,166.28
2019-05-18T09:19:34.800Z,167.37
2019-05-18T09:22:03.700Z,169.72
2019-05-18T09:24:30.836Z,166.35
2019-05-18T09:26:59.158Z,167.95
2019-05-18T09:29:26.405Z,171.10
2019-05-18T09:31:54.786Z,178.05
2019-05-18T09:34:22.360Z,175.27
2019-05-18T09:36:49.476Z,177.17
2019-05-18T09:39:18.812Z,180.27
2019-05-18T09:41:50.250Z,170.97
2019-05-18T09:44:18.894Z,175.82
2019-05-18T09:46:52.522Z,172.17
2019-05-18T09:49:27.806Z,176.72
2019-05-18T09:52:04.368Z,173.43
2019-05-18T09:54:36.518Z,178.97
2019-05-18T09:57:04.021Z,179.25
2019-05-18T09:59:31.736Z,181.07
2019-05-18T10:02:13.136Z,181.82
2019-05-18T10:05:19.067Z,184.20
2019-05-18T10:08:00.251Z,181.35
2019-05-18T10:10:49.807Z,183.70
2019-05-18T10:13:19.181Z,183.72
2019-05-18T10:15:46.419Z,177.70
2019-05-18T10:18:17.503Z,181.12
2019-05-18T10:20:46.454Z,178.97
2019-05-18T10:23:14.078Z,180.50
2019-05-18T10:25:41.974Z,176.87
2019-05-18T10:28:14.864Z,175.32
2019-05-18T10:30:49.247Z,176.82
2019-05-18T10:33:17.731Z,174.93
2019-05-18T10:35:53.067Z,175.68
2019-05-18T10:38:24.676Z,185.65
2019-05-18T10:40:54.570Z,181.28
2019-05-18T10:43:21.918Z,181.57
2019-05-18T10:46:24.477Z,182.68
2019-05-18T10:49:00.568Z,181.35
2019-05-18T10:51:42.802Z,174.15
2019-05-18T10:54:25.170Z,178.35
2019-05-18T10:56:59.030Z,181.05
2019-05-18T11:00:08.450Z,174.68
2019-05-18T11:05:54.772Z,175.62
2019-05-18T11:08:50.648Z,174.40
2019-05-18T11:11:21.645Z,176.85
2019-05-18T11:13:51.152Z,178.20
2019-05-18T11:16:19.528Z,180.45
2019-05-18T11:19:03.912Z,182.55
2019-05-18T11:21:50.460Z,183.93
2019-05-18T11:25:04.905Z,180.65
2019-05-18T11:27:38.344Z,178.68
2019-05-18T11:30:14.623Z,178.72
2019-05-18T11:33:04.566Z,178.38
2019-05-18T11:35:37.055Z,172.72
2019-05-18T11:38:04.687Z,174.40
2019-05-18T11:40:33.685Z,176.75
2019-05-18T11:43:01.667Z,175.45
2019-05-18T11:45:35.715Z,174.40
2019-05-18T11:48:03.570Z,176.72
2019-05-18T11:50:30.855Z,182.20
2019-05-18T11:52:58.146Z,182.75
2019-05-18T11:55:25.335Z,188.37
2019-05-18T11:57:55.087Z,179.60
2019-05-18T12:00:36.312Z,176.22
2019-05-18T12:03:08.689Z,176.42
2019-05-18T12:05:36.118Z,177.32
2019-05-18T12:08:09.874Z,177.70
2019-05-18T12:10:37.055Z,180.97
2019-05-18T12:13:12.472Z,177.15
2019-05-18T12:15:43.434Z,174.82
2019-05-18T12:18:12.968Z,172.93
2019-05-18T12:20:42.541Z,175.93
2019-05-18T12:23:15.251Z,176.68
2019-05-18T12:25:42.499Z,176.85
2019-05-18T12:28:13.090Z,171.13
2019-05-18T12:30:51.314Z,176.05
2019-05-18T12:33:18.833Z,173.38
2019-05-18T12:35:47.698Z,177.15
2019-05-18T12:38:15.118Z,177.85
2019-05-18T12:40:42.460Z,184.82
2019-05-18T12:43:09.646Z,180.07
2019-05-18T12:45:38.035Z,181.65
2019-05-18T12:48:06.184Z,180.75
2019-05-18T12:50:37.858Z,180.90
2019-05-18T12:53:06.365Z,177.02
2019-05-18T12:55:34.649Z,178.72
2019-05-18T12:58:08.266Z,177.57
2019-05-18T13:00:38.929Z,178.45
2019-05-18T13:03:11.420Z,174.97
2019-05-18T13:05:39.585Z,174.45
2019-05-18T13:08:07.371Z,172.10
2019-05-18T13:10:35.972Z,175.35
2019-05-18T13:13:04.129Z,170.22
2019-05-18T13:15:31.546Z,174.02
2019-05-18T13:17:59.072Z,176.10
2019-05-18T13:20:49.204Z,173.40
2019-05-18T13:23:26.666Z,174.10
2019-05-18T13:26:12.696Z,171.22
2019-05-18T13:28:55.186Z,173.95
2019-05-18T13:31:36.142Z,174.00
2019-05-18T13:34:08.010Z,172.87
2019-05-18T13:36:38.176Z,171.40
2019-05-18T13:39:28.526Z,171.47
2019-05-18T13:41:57.861Z,167.85
2019-05-18T13:47:29.418Z,171.87
2019-05-18T13:50:05.547Z,170.82
2019-05-18T13:52:32.900Z,170.60
2019-05-18T13:55:05.670Z,169.25
2019-05-18T13:58:02.135Z,169.97
2019-05-18T14:03:39.691Z,167.98
2019-05-18T14:06:13.995Z,169.00
2019-05-18T14:08:41.381Z,168.00
2019-05-18T14:11:08.377Z,167.45
2019-05-18T14:13:45.551Z,167.50
2019-05-18T14:16:19.614Z,167.87
2019-05-18T14:18:50.404Z,167.55
2019-05-18T14:21:17.377Z,166.55
2019-05-18T14:23:44.364Z,169.57
2019-05-18T14:26:11.366Z,166.80
2019-05-18T14:28:39.243Z,166.73
2019-05-18T14:31:06.261Z,167.40
2019-05-18T14:33:33.257Z,169.13
2019-05-18T14:36:14.812Z,165.68
2019-05-18T14:38:43.243Z,166.57
2019-05-18T14:41:10.211Z,164.67
2019-05-18T14:43:37.194Z,166.35
2019-05-18T14:46:04.216Z,166.18
2019-05-18T14:48:31.290Z,164.13
2019-05-18T14:50:58.709Z,166.43
2019-05-18T14:53:27.595Z,163.10
2019-05-18T14:55:54.570Z,165.80
2019-05-18T14:58:21.532Z,163.57
2019-05-18T15:00:48.558Z,164.72
2019-05-18T15:03:16.838Z,164.70
2019-05-18T15:05:44.207Z,165.82
2019-05-18T15:08:11.248Z,166.70
2019-05-18T15:10:41.006Z,165.45
2019-05-18T15:13:08.015Z,165.88
2019-05-18T15:15:35.024Z,167.22
2019-05-18T15:18:02.211Z,167.55
2019-05-18T15:20:29.292Z,165.43
2019-05-18T15:22:56.294Z,168.02
2019-05-18T15:25:23.296Z,167.22
2019-05-18T15:27:52.225Z,166.10
2019-05-18T15:30:19.524Z,166.00
2019-05-18T15:32:48.412Z,166.57
2019-05-18T15:35:15.817Z,167.18
2019-05-18T15:37:44.095Z,165.57
2019-05-18T15:40:24.148Z,167.18
2019-05-18T15:42:51.837Z,165.37
2019-05-18T15:45:18.860Z,164.70
2019-05-18T15:47:45.829Z,164.70
2019-05-18T15:50:14.737Z,166.05
2019-05-18T15:52:41.999Z,165.90
2019-05-18T15:55:09.287Z,168.10
2019-05-18T15:57:36.325Z,167.30
2019-05-18T16:00:06.682Z,165.40
2019-05-18T16:02:33.959Z,165.45
2019-05-18T16:05:08.620Z,167.82
2019-05-18T16:07:35.685Z,166.82
2019-05-18T16:10:02.761Z,166.60
2019-05-18T16:12:29.775Z,166.10
2019-05-18T16:15:00.446Z,169.97
2019-05-18T16:17:39.008Z,168.65
2019-05-18T16:20:00.360Z,166.05
2019-05-18T16:22:27.371Z,166.18
2019-05-18T16:24:54.388Z,167.32
2019-05-18T16:27:23.365Z,167.80
2019-05-18T16:29:51.447Z,167.57
2019-05-18T16:32:18.407Z,166.62
2019-05-18T16:34:45.486Z,167.93
2019-05-18T16:37:12.804Z,168.02
2019-05-18T16:39:40.542Z,166.70
2019-05-18T16:42:16.371Z,166.85
2019-05-18T16:44:43.457Z,167.13
2019-05-18T16:47:10.551Z,169.10
2019-05-18T16:49:37.534Z,167.37
2019-05-18T16:52:04.858Z,166.88
2019-05-18T16:54:31.930Z,166.53
2019-05-18T16:56:59.021Z,165.70
2019-05-18T16:59:25.958Z,164.10
2019-05-18T17:01:52.949Z,164.60
2019-05-18T17:04:19.919Z,165.40
2019-05-18T17:06:47.391Z,166.62
2019-05-18T17:09:14.444Z,165.95
2019-05-18T17:11:41.494Z,166.85
2019-05-18T17:14:08.482Z,164.57
2019-05-18T17:16:35.691Z,165.70
2019-05-18T17:19:04.884Z,164.05
2019-05-18T17:21:31.870Z,162.03
2019-05-18T17:23:58.827Z,172.95
2019-05-18T17:26:25.817Z,166.45
2019-05-18T17:28:52.921Z,162.62
2019-05-18T17:31:23.213Z,163.20
2019-05-18T17:33:50.293Z,162.50
2019-05-18T17:36:19.641Z,162.57
2019-05-18T17:38:46.501Z,161.03
2019-05-18T17:41:20.439Z,161.47
2019-05-18T17:44:20.849Z,159.37
2019-05-18T17:46:48.823Z,159.10
2019-05-18T17:49:26.523Z,160.57
2019-05-18T17:51:44.782Z,158.68
2019-05-18T17:54:11.798Z,160.12
2019-05-18T17:56:38.896Z,162.10
2019-05-18T17:59:07.673Z,163.28
2019-05-18T18:01:35.011Z,166.05
2019-05-18T18:04:03.332Z,162.65
2019-05-18T18:06:33.616Z,163.62
2019-05-18T18:09:22.008Z,161.47
2019-05-18T18:11:49.141Z,161.68
2019-05-18T18:14:16.269Z,163.25
2019-05-18T18:16:43.265Z,164.35
2019-05-18T18:19:10.363Z,167.05
2019-05-18T18:21:39.664Z,162.10
2019-05-18T18:24:06.627Z,161.75
2019-05-18T18:26:33.652Z,159.97
2019-05-18T18:29:03.778Z,161.73
2019-05-18T18:31:29.672Z,159.72
2019-05-18T18:33:58.585Z,160.97
2019-05-18T18:36:25.581Z,161.25
2019-05-18T18:38:52.570Z,161.55
2019-05-18T18:41:21.480Z,159.63
2019-05-18T18:43:48.507Z,158.93
2019-05-18T18:46:15.537Z,158.25
2019-05-18T18:48:42.539Z,157.15
2019-05-18T18:51:09.534Z,156.93
2019-05-18T18:53:38.503Z,156.50
2019-05-18T18:56:05.913Z,155.72
2019-05-18T18:58:32.880Z,159.20
2019-05-18T19:01:00.068Z,157.03
2019-05-18T19:03:29.147Z,157.57
2019-05-18T19:05:56.187Z,156.07
2019-05-18T19:08:23.329Z,156.87
2019-05-18T19:10:51.762Z,158.90
2019-05-18T19:13:19.977Z,159.52
2019-05-18T19:15:46.969Z,161.30
2019-05-18T19:18:13.944Z,161.73
2019-05-18T19:20:40.950Z,159.40
2019-05-18T19:23:07.970Z,160.57
2019-05-18T19:25:36.169Z,160.63
2019-05-18T19:28:03.196Z,158.20
2019-05-18T19:30:33.407Z,157.18
2019-05-18T19:33:00.608Z,157.27
2019-05-18T19:35:27.615Z,156.82
2019-05-18T19:37:55.104Z,160.78
2019-05-18T19:40:22.101Z,159.05
2019-05-18T19:42:49.103Z,159.85
2019-05-18T19:45:16.395Z,159.80
2019-05-18T19:47:43.932Z,158.42
2019-05-18T19:50:12.047Z,157.07
2019-05-18T19:52:42.755Z,157.65
2019-05-18T19:55:09.861Z,155.57
2019-05-18T19:57:40.100Z,156.90
2019-05-18T20:00:07.460Z,156.28
2019-05-18T20:02:38.744Z,157.88
2019-05-18T20:05:08.487Z,157.22
2019-05-18T20:07:38.627Z,155.80
2019-05-18T20:10:06.032Z,154.80
2019-05-18T20:12:33.058Z,155.30
2019-05-18T20:15:03.711Z,156.18
2019-05-18T20:17:36.904Z,155.18
2019-05-18T20:20:09.120Z,155.22
2019-05-18T20:22:37.620Z,155.95
2019-05-18T20:25:06.858Z,154.72
2019-05-18T20:27:35.995Z,157.90
2019-05-18T20:30:14.214Z,158.70
2019-05-18T20:32:49.318Z,155.65
2019-05-18T20:35:16.839Z,156.63
2019-05-18T20:37:55.378Z,154.90
2019-05-18T20:40:24.894Z,159.93
2019-05-18T20:42:52.087Z,155.82
2019-05-18T20:45:19.644Z,155.45
2019-05-18T20:47:46.686Z,155.60
2019-05-18T20:50:16.776Z,154.12
2019-05-18T20:52:43.790Z,155.07
2019-05-18T20:55:10.787Z,154.68
2019-05-18T20:57:37.745Z,155.43
2019-05-18T21:00:05.207Z,156.60
2019-05-18T21:02:34.494Z,156.65
2019-05-18T21:05:03.344Z,155.87
2019-05-18T21:07:32.567Z,155.70
2019-05-18T21:10:03.006Z,155.03
2019-05-18T21:12:30.417Z,155.82
2019-05-18T21:14:57.446Z,157.50
2019-05-18T21:17:24.603Z,158.25
2019-05-18T21:19:53.939Z,157.05
2019-05-18T21:22:20.897Z,158.27
2019-05-18T21:24:47.931Z,157.57
2019-05-18T21:27:15.603Z,156.50
2019-05-18T21:29:42.624Z,157.15
2019-05-18T21:32:12.375Z,157.05
2019-05-18T21:34:42.682Z,156.97
2019-05-18T21:37:09.683Z,159.43
2019-05-18T21:39:36.965Z,158.15
2019-05-18T21:42:03.938Z,158.03
2019-05-18T21:44:30.941Z,158.47
2019-05-18T21:46:57.976Z,160.15
2019-05-18T21:49:25.134Z,159.20
2019-05-18T21:51:52.236Z,158.63
2019-05-18T21:54:23.609Z,157.52
2019-05-18T21:56:50.882Z,158.37
2019-05-18T21:59:32.084Z,157.40
2019-05-18T22:02:04.641Z,166.95
2019-05-18T22:04:33.011Z,157.30
2019-05-18T22:07:02.206Z,157.57
2019-05-18T22:09:29.436Z,157.85
2019-05-18T22:12:00.108Z,156.72
2019-05-18T22:14:28.561Z,157.37
2019-05-18T22:16:55.605Z,158.87
2019-05-18T22:19:22.578Z,155.80
2019-05-18T22:21:49.574Z,155.93
2019-05-18T22:24:25.733Z,157.37
2019-05-18T22:26:53.019Z,156.78
2019-05-18T22:29:19.985Z,157.90
2019-05-18T22:31:46.911Z,159.32
2019-05-18T22:34:15.951Z,157.55
2019-05-18T22:36:42.923Z,158.85
2019-05-18T22:39:09.864Z,158.75
2019-05-18T22:41:37.236Z,158.95
2019-05-18T22:44:04.197Z,158.03
2019-05-18T22:46:31.222Z,159.93
2019-05-18T22:48:58.225Z,159.87
2019-05-18T22:51:26.417Z,158.87
2019-05-18T22:53:53.405Z,157.43
2019-05-18T22:56:20.429Z,156.97
2019-05-18T22:58:47.475Z,156.07
2019-05-18T23:01:14.611Z,155.80
2019-05-18T23:03:41.635Z,155.93
2019-05-18T23:06:10.523Z,156.78
2019-05-18T23:08:37.484Z,155.12
2019-05-18T23:11:04.457Z,156.55
2019-05-18T23:13:31.400Z,155.30
2019-05-18T23:15:58.378Z,156.95
2019-05-18T23:18:25.380Z,157.27
2019-05-18T23:20:52.390Z,156.90
2019-05-18T23:23:19.349Z,155.90
2019-05-18T23:25:46.346Z,155.63
2019-05-18T23:28:13.392Z,154.47
2019-05-18T23:30:41.525Z,156.90
2019-05-18T23:33:08.560Z,157.55
2019-05-18T23:35:35.507Z,157.05
2019-05-18T23:38:02.795Z,157.62
2019-05-18T23:40:29.900Z,158.42
2019-05-18T23:42:56.881Z,157.12
2019-05-18T23:45:23.835Z,157.50
2019-05-18T23:47:50.833Z,157.43
2019-05-18T23:50:18.052Z,154.68
2019-05-18T23:52:45.414Z,155.07
2019-05-18T23:55:12.610Z,155.82
2019-05-18T23:57:39.602Z,156.30
